Scroll down
FLIGHT INFORMATION
Delta Air Lines

DAL1194

At Arrival Gate

KSLC
 KPDX
DATE: 2019-12-14
GATE:  -
GATE DEPARTURE: 21:57
TAKEOFF: 22:11
DATE: 2019-12-15
GATE:  -
LANDING: 00:01
GATE ARRIVAL: 00:07
FLIGHT DATA
Crew: 
Speed: 
461 kts
Altitude: 
34,015 ft
Stage Length: 
546.3 nm
Block Time: 
2.1 hrs
Flight Time: 
1.8 hrs
Fuel Used: 
11,746 lb
Cleared Route: 
TRACK DATA
50,000 ft 1,000 kts
AIRCRAFT INFO AND CUMULATIVE STATS
Aircraft Type: 
B739ERSSW
Registration: 
SELCAL: 
MSN/LN: 
31961 / 5694
Operator: 
Total Flights: 
24
Total Block Time: 
65.8 hrs
Total Flight Time: 
58 hrs
Total Fuel Used: 
319,198 lb
DATALINK LOG | Newest first | Current as of: 2022-10-05 10:01:28
LABEL SEQUENCE CONTENT Dn/Up
QD083600:07 7.2▼ Dn
QC023000:01▼ Dn
2U4131KPDX 140353Z 29003KT 10SM SCT018 BKN043 06/04 A3005 RMK AO2 SLP173 T00610044▲ Up
2S4131KPDX▼ Dn
QB111022:11▼ Dn
2U5946KSLC 140154Z 16003KT 10SM FEW031 BKN060 BKN075 04/01 A2992 RMK AO2 SLP130 T00440006▲ Up
2S5946KSLC▼ Dn
QA583221:57 19▼ Dn
2U5319KSLC 140054Z 18004KT 10SM BKN021 BKN039 OVC055 04/01 A2996 RMK AO2 RAB04E13 SLP141 P0000 T00440006▲ Up
2S5319KSLC▼ Dn
A30853CLEARED TO KPDX VIA CGULL1 TWF ALKAL IMB JOTBA HHOOD4. SQUAWK 2471.▲ Up
Q00743[LINK ACK]▲ Up
Q04939[LINK TEST]▼ Dn


AIRCRAFT HISTORY
FLIGHT DATE FLIGHT NO. ORIGIN DESTINATION CLEARED ROUTE BLOCK TIME FLIGHT TIME FUEL USED PILOT
2021-05-16DAL516KSAN KSFO KSAN IKAYE RIZIN SPLNT STOKD SERFR KSFO1.4 hrs1.3 hrs10,306 lbpaul gugliotta
2021-05-16DAL516KLAX KSAN KLAX MZB KSAN0.7 hrs0.6 hrs3,548 lbpaul gugliotta
2021-02-11DAL211TXKF KLAX TXKF ENAPI OMALA CLOWR VPAFI YIBYI MARVE NAVYS KA09W ELP KATMN PAYNT ESTWD KLAX5.8 hrs5.5 hrs46,328 lbAlex K.
2020-05-05DAL999KCLT TXKF 2.5 hrs2.1 hrs15,567 lbCharles Harris
2020-03-30DAL202KATL KCLT 0.9 hrs0.7 hrs6,094 lbPaul Gollnick
2020-03-22DAL322KMIA KATL 2 hrs1.6 hrs11,600 lbCharles Harris
2020-02-13DAL243KBOS KMIA 3.5 hrs3 hrs18,345 lbKyle Weber
2020-02-12DAL2533KLAX KBOS 4.9 hrs4.7 hrs30,512 lbKyle Weber
2020-02-08DAL5691KSAN KLAX 0.7 hrs0.5 hrs3,332 lbKyle Weber
2020-02-07DAL4504KLAX KSAN 0.7 hrs0.5 hrs3,921 lbKyle Weber
2020-01-19DAL5691KSAN KLAX 0.7 hrs0.2 hrs2,813 lbKyle Weber
2020-01-12DAL5691KLAX KSAN 0.7 hrs0.5 hrs3,605 lbKyle Weber
2020-01-11DAL4504KSAN KLAX 0.6 hrs0.4 hrs3,217 lbKyle Weber
2020-01-03DAL4504KSAN KSAN KSAN WNFLD GYWNN PADRZ CWARD MADOW SLI MERCE RW24R2 hrs0 hrs3,500 lbKyle Weber
2020-01-03DAL4504KLAX KSAN KLAX SLI DANAH OCN CARIF MZB KSAN0.7 hrs0.6 hrs3,599 lbKyle Weber
2019-12-31DAL4504KSAN KLAX KSAN WNFLD GYWNN PADRZ CWARD MADOW SLI MERCE RW24R0.7 hrs0.5 hrs3,823 lbKyle Weber
2019-12-25DAL886PHNL KSAN 16.6 hrs16.3 hrs33,137 lbJhan Jensen
2019-12-24DAL1515KPDX PHNL KPDX ONP HEMLO HEKAB HELOP HALLI AUNTI APACK PHNL5.6 hrs5.4 hrs31,381 lbJhan Jensen
2019-12-23DAL333KRNO KPDX KRNO FMG WNDEL LMT MOXEE PORTL KPDX1.9 hrs1.5 hrs10,976 lbCharles Harris
2019-12-17DAL333KPDX KRNO 1.7 hrs1.4 hrs10,147 lbCharles Harris
2019-12-14DAL1194KSLC KPDX 2.1 hrs1.8 hrs11,746 lbMichael Roth
2019-12-13DAL2795KMSP KSLC 2.8 hrs2.6 hrs16,027 lbMichael Roth
2019-11-25DAL1936KMIA KMSP 3.7 hrs3.5 hrs22,393 lbDan Downs
2019-11-22DAL2211TJSJ KMIA 2.8 hrs2.7 hrs16,780 lbCharles Harris